createdAt,value
2016-08-28T04:01:10.029Z,26.68
2016-08-28T04:01:35.593Z,26.72
2016-08-28T04:02:01.158Z,26.65
2016-08-28T04:02:26.740Z,26.69
2016-08-28T04:02:52.317Z,26.72
2016-08-28T04:03:17.890Z,26.67
2016-08-28T04:03:43.447Z,26.62
2016-08-28T04:04:09.006Z,26.69
2016-08-28T04:04:34.577Z,26.67
2016-08-28T04:05:00.149Z,26.67
2016-08-28T04:05:25.718Z,26.73
2016-08-28T04:05:51.398Z,26.67
2016-08-28T04:06:16.974Z,26.72
2016-08-28T04:06:42.559Z,26.67
2016-08-28T04:07:08.145Z,26.69
2016-08-28T04:07:33.730Z,26.74
2016-08-28T04:07:59.276Z,26.72
2016-08-28T04:08:24.839Z,26.69
2016-08-28T04:08:50.498Z,26.62
2016-08-28T04:09:16.087Z,26.69
2016-08-28T04:09:41.657Z,26.64
2016-08-28T04:10:07.213Z,26.67
2016-08-28T04:10:32.787Z,26.69
2016-08-28T04:10:58.337Z,26.67
2016-08-28T04:11:23.864Z,26.67
2016-08-28T04:11:49.426Z,26.72
2016-08-28T04:12:14.970Z,26.68
2016-08-28T04:12:40.518Z,26.73
2016-08-28T04:13:06.116Z,26.64
2016-08-28T04:13:31.674Z,26.67
2016-08-28T04:13:57.225Z,26.68
2016-08-28T04:14:22.863Z,26.67
2016-08-28T04:14:48.439Z,26.68
2016-08-28T04:15:14.009Z,26.68
2016-08-28T04:15:39.568Z,26.62
2016-08-28T04:16:05.131Z,26.67
2016-08-28T04:16:30.692Z,26.65
2016-08-28T04:16:56.272Z,26.65
2016-08-28T04:17:21.827Z,26.67
2016-08-28T04:17:47.395Z,26.68
2016-08-28T04:18:12.972Z,26.67
2016-08-28T04:18:38.523Z,26.62
2016-08-28T04:19:04.079Z,26.67
2016-08-28T04:19:29.632Z,26.64
2016-08-28T04:19:55.209Z,26.72
2016-08-28T04:20:20.767Z,26.68
2016-08-28T04:20:46.311Z,26.69
2016-08-28T04:21:11.958Z,26.69
2016-08-28T04:21:37.606Z,26.69
2016-08-28T04:22:03.241Z,26.73
2016-08-28T04:22:28.795Z,26.65
2016-08-28T04:22:54.404Z,26.72
2016-08-28T04:23:19.989Z,26.68
2016-08-28T04:23:45.558Z,26.72
2016-08-28T04:24:11.127Z,26.64
2016-08-28T04:24:36.696Z,26.69
2016-08-28T04:25:02.289Z,26.68
2016-08-28T04:25:27.870Z,26.68
2016-08-28T04:25:53.433Z,26.68
2016-08-28T04:26:19.007Z,26.62
2016-08-28T04:26:44.588Z,26.69
2016-08-28T04:27:10.163Z,26.68
2016-08-28T04:27:35.729Z,26.67
2016-08-28T04:28:01.305Z,26.68
2016-08-28T04:28:26.898Z,26.72
2016-08-28T04:29:24.974Z,26.68
2016-08-28T04:31:32.316Z,26.65
2016-08-28T04:31:57.877Z,26.65
2016-08-28T04:32:23.461Z,26.72
2016-08-28T04:32:49.027Z,26.68
2016-08-28T04:33:14.583Z,26.67
2016-08-28T04:33:40.200Z,26.61
2016-08-28T04:34:05.826Z,26.67
2016-08-28T04:34:31.378Z,26.62
2016-08-28T04:34:56.970Z,26.68
2016-08-28T04:35:22.581Z,26.65
2016-08-28T04:35:48.141Z,26.62
2016-08-28T04:36:13.698Z,26.67
2016-08-28T04:36:39.264Z,26.76
2016-08-28T04:37:04.826Z,26.68
2016-08-28T04:37:30.459Z,26.61
2016-08-28T04:37:56.027Z,26.69
2016-08-28T04:38:21.608Z,26.67
2016-08-28T04:38:47.183Z,26.74
2016-08-28T04:39:12.750Z,26.68
2016-08-28T04:39:38.323Z,26.62
2016-08-28T04:40:03.868Z,26.69
2016-08-28T04:40:29.457Z,26.65
2016-08-28T04:40:55.049Z,26.65
2016-08-28T04:41:20.628Z,26.62
2016-08-28T04:41:46.200Z,26.72
2016-08-28T04:42:11.865Z,26.69
2016-08-28T04:42:37.429Z,26.69
2016-08-28T04:43:02.989Z,26.62
2016-08-28T04:43:28.642Z,26.67
2016-08-28T04:43:54.269Z,26.68
2016-08-28T04:44:19.840Z,26.62
2016-08-28T04:44:45.408Z,26.74
2016-08-28T04:45:10.958Z,26.64
2016-08-28T04:45:36.533Z,26.68
2016-08-28T04:46:02.109Z,26.73
2016-08-28T04:46:27.701Z,26.67
2016-08-28T04:46:53.277Z,26.68
2016-08-28T04:47:18.855Z,26.68
2016-08-28T04:47:44.419Z,26.68
2016-08-28T04:48:09.990Z,26.65
2016-08-28T04:48:35.585Z,26.64
2016-08-28T04:49:01.160Z,26.64
2016-08-28T04:49:26.731Z,26.68
2016-08-28T04:49:52.376Z,26.65
2016-08-28T04:50:18.068Z,26.68
2016-08-28T04:50:43.629Z,26.76
2016-08-28T04:51:09.205Z,26.64
2016-08-28T04:51:34.778Z,26.64
2016-08-28T04:52:22.684Z,26.64
2016-08-28T04:52:48.251Z,26.76
2016-08-28T04:53:13.829Z,26.68
2016-08-28T04:53:39.379Z,26.61
2016-08-28T04:54:05.003Z,26.65
2016-08-28T04:54:30.621Z,26.72
2016-08-28T04:54:56.211Z,26.68
2016-08-28T04:55:21.791Z,26.62
2016-08-28T04:55:47.344Z,26.68
2016-08-28T04:56:12.909Z,26.68
2016-08-28T04:56:38.483Z,26.64
2016-08-28T04:57:04.046Z,26.73
2016-08-28T04:57:29.612Z,26.67
2016-08-28T04:57:55.173Z,26.65
2016-08-28T04:58:20.763Z,26.65
2016-08-28T04:58:46.337Z,26.67
2016-08-28T04:59:11.924Z,26.64
2016-08-28T04:59:37.459Z,26.64
2016-08-28T05:00:03.041Z,26.68
2016-08-28T05:00:28.605Z,26.67
2016-08-28T05:00:54.166Z,26.65
2016-08-28T05:01:19.763Z,26.69
2016-08-28T05:01:45.328Z,26.67
2016-08-28T05:02:10.885Z,26.62
2016-08-28T05:02:36.449Z,26.67
2016-08-28T05:03:02.072Z,26.65
2016-08-28T05:03:27.655Z,26.68
2016-08-28T05:03:53.238Z,26.65
2016-08-28T05:04:18.803Z,26.69
2016-08-28T05:04:44.358Z,26.68
2016-08-28T05:05:09.925Z,26.62
2016-08-28T05:05:35.496Z,26.64
2016-08-28T05:06:01.071Z,26.67
2016-08-28T05:06:26.631Z,26.68
2016-08-28T05:06:52.174Z,26.62
2016-08-28T05:07:17.763Z,26.61
2016-08-28T05:07:43.343Z,26.64
2016-08-28T05:08:08.897Z,26.61
2016-08-28T05:08:34.469Z,26.65
2016-08-28T05:09:00.154Z,26.67
2016-08-28T05:09:25.759Z,26.69
2016-08-28T05:09:51.379Z,26.62
2016-08-28T05:10:16.947Z,26.67
2016-08-28T05:10:42.509Z,26.64
2016-08-28T05:11:08.069Z,26.61
2016-08-28T05:11:33.720Z,26.69
2016-08-28T05:11:59.261Z,26.65
2016-08-28T05:12:24.831Z,26.65
2016-08-28T05:12:50.378Z,26.62
2016-08-28T05:13:15.966Z,26.62
2016-08-28T05:13:41.578Z,26.72
2016-08-28T05:14:07.153Z,26.65
2016-08-28T05:14:32.722Z,26.68
2016-08-28T05:14:58.300Z,26.65
2016-08-28T05:15:23.867Z,26.68
2016-08-28T05:15:49.486Z,26.64
2016-08-28T05:16:15.060Z,26.67
2016-08-28T05:16:40.631Z,26.68
2016-08-28T05:17:06.260Z,26.72
2016-08-28T05:17:31.859Z,26.65
2016-08-28T05:17:57.441Z,26.61
2016-08-28T05:18:23.092Z,26.61
2016-08-28T05:18:48.658Z,26.68
2016-08-28T05:19:14.229Z,26.64
2016-08-28T05:19:39.824Z,26.64
2016-08-28T05:20:05.567Z,26.62
2016-08-28T05:20:31.138Z,26.69
2016-08-28T05:20:56.718Z,26.65
2016-08-28T05:21:22.290Z,26.69
2016-08-28T05:21:47.860Z,26.62
2016-08-28T05:22:13.559Z,26.67
2016-08-28T05:22:39.113Z,26.65
2016-08-28T05:23:04.652Z,26.69
2016-08-28T05:23:30.251Z,26.61
2016-08-28T05:23:55.814Z,26.67
2016-08-28T05:24:21.414Z,26.65
2016-08-28T05:24:46.975Z,26.68
2016-08-28T05:25:12.543Z,26.64
2016-08-28T05:25:38.096Z,26.65
2016-08-28T05:26:03.672Z,26.72
2016-08-28T05:26:29.314Z,26.64
2016-08-28T05:26:54.874Z,26.68
2016-08-28T05:27:20.460Z,26.67
2016-08-28T05:27:46.028Z,26.68
2016-08-28T05:28:11.592Z,26.64
2016-08-28T05:28:37.181Z,26.62
2016-08-28T05:29:02.988Z,26.64
2016-08-28T05:29:28.603Z,26.69
2016-08-28T05:29:54.179Z,26.62
2016-08-28T05:30:19.763Z,26.62
2016-08-28T05:30:45.330Z,26.64
2016-08-28T05:31:11.064Z,26.64
2016-08-28T05:31:36.632Z,26.67
2016-08-28T05:32:02.198Z,26.69
2016-08-28T05:32:27.849Z,26.65
2016-08-28T05:32:53.420Z,26.68
2016-08-28T05:33:18.986Z,26.64
2016-08-28T05:33:44.550Z,26.61
2016-08-28T05:34:10.122Z,26.68
2016-08-28T05:34:35.753Z,26.65
2016-08-28T05:35:01.312Z,26.62
2016-08-28T05:35:26.902Z,26.64
2016-08-28T05:35:52.463Z,26.65
2016-08-28T05:36:18.151Z,26.62
2016-08-28T05:36:43.722Z,26.67
2016-08-28T05:37:09.298Z,26.67
2016-08-28T05:37:34.883Z,26.62
2016-08-28T05:38:00.451Z,26.68
2016-08-28T05:38:27.061Z,26.69
2016-08-28T05:38:52.632Z,26.64
2016-08-28T05:39:18.201Z,26.64
2016-08-28T05:39:43.793Z,26.62
2016-08-28T05:40:09.439Z,26.67
2016-08-28T05:40:34.986Z,26.62
2016-08-28T05:41:00.562Z,26.67
2016-08-28T05:41:48.431Z,26.64
2016-08-28T05:42:14.051Z,26.69
2016-08-28T05:42:39.642Z,26.67
2016-08-28T05:43:05.211Z,26.64
2016-08-28T05:43:30.765Z,26.69
2016-08-28T05:43:56.325Z,26.68
2016-08-28T05:44:21.869Z,26.64
2016-08-28T05:44:47.432Z,26.65
2016-08-28T05:45:13.006Z,26.67
2016-08-28T05:45:38.581Z,26.62
2016-08-28T05:46:04.147Z,26.67
2016-08-28T05:46:29.711Z,26.68
2016-08-28T05:46:55.277Z,26.62
2016-08-28T05:47:20.844Z,26.65
2016-08-28T05:47:46.481Z,26.65
2016-08-28T05:48:12.089Z,26.65
2016-08-28T05:48:37.728Z,26.64
2016-08-28T05:49:03.237Z,26.68
2016-08-28T05:49:28.921Z,26.67
2016-08-28T05:49:54.481Z,26.67
2016-08-28T05:50:20.025Z,26.72
2016-08-28T05:50:45.571Z,26.65
2016-08-28T05:51:11.159Z,26.64
2016-08-28T05:51:36.724Z,26.62
2016-08-28T05:52:02.284Z,26.62
2016-08-28T05:52:27.846Z,26.64
2016-08-28T05:52:53.403Z,26.64
2016-08-28T05:53:19.020Z,26.62
2016-08-28T05:53:44.618Z,26.72
2016-08-28T05:54:10.202Z,26.64
2016-08-28T05:54:35.759Z,26.65
2016-08-28T05:55:01.398Z,26.68
2016-08-28T05:55:26.985Z,26.65
2016-08-28T05:55:52.559Z,26.64
2016-08-28T05:56:18.101Z,26.64
2016-08-28T05:56:43.658Z,26.64
2016-08-28T05:57:09.209Z,26.65
2016-08-28T05:57:34.782Z,26.68
2016-08-28T05:58:00.346Z,26.65
2016-08-28T05:58:26.063Z,26.67
2016-08-28T05:58:51.648Z,26.62
2016-08-28T05:59:17.227Z,26.61
2016-08-28T05:59:42.781Z,26.72
2016-08-28T06:00:08.340Z,26.59
2016-08-28T06:00:56.256Z,26.65
2016-08-28T06:01:22.646Z,26.65
2016-08-28T06:01:48.862Z,26.68
2016-08-28T06:02:14.443Z,26.64
2016-08-28T06:02:40.109Z,26.67
2016-08-28T06:03:05.690Z,26.64
2016-08-28T06:03:31.275Z,26.62
2016-08-28T06:03:57.205Z,26.72
2016-08-28T06:04:22.752Z,26.64
2016-08-28T06:04:48.356Z,26.67
2016-08-28T06:05:13.939Z,26.67
2016-08-28T06:05:39.525Z,26.64
2016-08-28T06:06:05.111Z,26.68
2016-08-28T06:06:30.666Z,26.68
2016-08-28T06:06:56.247Z,26.68
2016-08-28T06:07:21.795Z,26.58
2016-08-28T06:07:47.339Z,26.72
2016-08-28T06:08:12.929Z,26.64
2016-08-28T06:08:38.449Z,26.67
2016-08-28T06:09:04.027Z,26.72
2016-08-28T06:09:29.573Z,26.69
2016-08-28T06:09:55.164Z,26.67
2016-08-28T06:10:20.718Z,26.68
2016-08-28T06:10:46.282Z,26.65
2016-08-28T06:11:11.893Z,26.59
2016-08-28T06:11:37.458Z,26.65
2016-08-28T06:12:03.100Z,26.65
2016-08-28T06:12:28.674Z,26.65
2016-08-28T06:12:54.232Z,26.59
2016-08-28T06:13:19.858Z,26.67
2016-08-28T06:13:45.449Z,26.67
2016-08-28T06:14:11.039Z,26.62
2016-08-28T06:14:36.734Z,26.67
2016-08-28T06:15:02.234Z,26.72
2016-08-28T06:15:27.782Z,26.67
2016-08-28T06:15:53.427Z,26.68
2016-08-28T06:16:19.005Z,26.65
2016-08-28T06:16:44.552Z,26.72
2016-08-28T06:17:10.109Z,26.62
2016-08-28T06:17:35.667Z,26.68
2016-08-28T06:18:01.297Z,26.67
2016-08-28T06:18:26.950Z,26.64
2016-08-28T06:18:52.638Z,26.67
2016-08-28T06:19:18.328Z,26.65
2016-08-28T06:19:45.350Z,26.64
2016-08-28T06:20:10.676Z,26.64
2016-08-28T06:20:36.260Z,26.64
2016-08-28T06:21:08.706Z,26.62
2016-08-28T06:21:34.263Z,26.59
2016-08-28T06:21:59.818Z,26.49
2016-08-28T06:22:25.525Z,26.49
2016-08-28T06:22:51.163Z,26.42
2016-08-28T06:23:16.843Z,26.37
2016-08-28T06:23:42.435Z,26.39
2016-08-28T06:24:07.972Z,26.39
2016-08-28T06:24:33.610Z,26.28
2016-08-28T06:24:59.141Z,26.28
2016-08-28T06:25:24.780Z,26.25
2016-08-28T06:25:50.338Z,26.24
2016-08-28T06:26:15.894Z,26.24
2016-08-28T06:26:41.440Z,26.28
2016-08-28T06:27:07.276Z,26.31
2016-08-28T06:27:32.872Z,26.2
2016-08-28T06:27:58.421Z,26.27
2016-08-28T06:28:23.965Z,26.27
2016-08-28T06:28:49.501Z,26.18
2016-08-28T06:29:15.050Z,26.2
2016-08-28T06:29:40.637Z,26.2
2016-08-28T06:30:06.368Z,26.29
2016-08-28T06:30:31.929Z,26.24
2016-08-28T06:30:57.588Z,26.22
2016-08-28T06:31:23.194Z,26.18
2016-08-28T06:31:48.750Z,26.27
2016-08-28T06:32:14.389Z,26.2
2016-08-28T06:32:39.982Z,26.12
2016-08-28T06:33:05.561Z,26.05
2016-08-28T06:33:31.109Z,26.02
2016-08-28T06:33:56.672Z,26.04
2016-08-28T06:34:22.489Z,26.05
2016-08-28T06:34:48.044Z,26.06
2016-08-28T06:35:13.590Z,26.05
2016-08-28T06:35:39.146Z,26.02
2016-08-28T06:36:04.799Z,26.01
2016-08-28T06:36:30.463Z,26.01
2016-08-28T06:36:56.047Z,26.09
2016-08-28T06:37:21.612Z,26.04
2016-08-28T06:37:47.395Z,25.97
2016-08-28T06:38:12.918Z,25.98
2016-08-28T06:38:38.496Z,25.91
2016-08-28T06:39:04.140Z,25.89
2016-08-28T06:39:29.673Z,25.94
2016-08-28T06:39:55.224Z,25.89
2016-08-28T06:40:20.791Z,25.91
2016-08-28T06:40:46.345Z,25.89
2016-08-28T06:41:12.026Z,25.89
2016-08-28T06:41:37.585Z,25.9
2016-08-28T06:42:03.396Z,25.87
2016-08-28T06:42:28.932Z,25.91
2016-08-28T06:42:54.467Z,25.83
2016-08-28T06:43:20.038Z,25.79
2016-08-28T06:43:45.645Z,25.75
2016-08-28T06:44:11.172Z,25.77
2016-08-28T06:44:36.711Z,25.75
2016-08-28T06:45:02.262Z,25.72
2016-08-28T06:45:27.839Z,25.69
2016-08-28T06:45:53.439Z,25.71
2016-08-28T06:46:19.038Z,25.68
2016-08-28T06:46:44.582Z,25.71
2016-08-28T06:47:10.160Z,25.71
2016-08-28T06:47:35.797Z,25.79
2016-08-28T06:48:01.336Z,25.75
2016-08-28T06:48:26.901Z,25.77
2016-08-28T06:48:52.598Z,25.75
2016-08-28T06:49:18.743Z,25.77
2016-08-28T06:49:44.362Z,25.75
2016-08-28T06:50:09.996Z,25.74
2016-08-28T06:50:35.536Z,25.72
2016-08-28T06:51:01.088Z,25.77
2016-08-28T06:51:26.634Z,25.74
2016-08-28T06:51:52.214Z,25.71
2016-08-28T06:52:17.803Z,25.71
2016-08-28T06:52:43.356Z,25.57
2016-08-28T06:53:09.013Z,25.67
2016-08-28T06:53:34.604Z,25.71
2016-08-28T06:54:00.221Z,25.72
2016-08-28T06:54:25.890Z,25.72
2016-08-28T06:54:51.476Z,25.75
2016-08-28T06:55:17.032Z,25.65
2016-08-28T06:55:42.586Z,25.74
2016-08-28T06:56:08.179Z,25.68
2016-08-28T06:56:33.933Z,25.68
2016-08-28T06:56:59.511Z,25.75
2016-08-28T06:57:25.069Z,25.72
2016-08-28T06:57:50.614Z,25.74
2016-08-28T06:58:16.175Z,25.69
2016-08-28T06:58:41.757Z,25.67
2016-08-28T06:59:07.340Z,25.68
2016-08-28T06:59:32.883Z,25.69
2016-08-28T06:59:58.500Z,25.69
2016-08-28T07:00:24.058Z,25.72
2016-08-28T07:00:49.675Z,25.72
2016-08-28T07:01:15.258Z,25.71
2016-08-28T07:01:40.794Z,25.68
2016-08-28T07:02:06.494Z,25.71
2016-08-28T07:02:32.047Z,25.65
2016-08-28T07:02:57.595Z,25.67
2016-08-28T07:03:23.165Z,25.71
2016-08-28T07:03:48.707Z,25.72
2016-08-28T07:04:14.366Z,25.74
2016-08-28T07:04:39.995Z,25.69
2016-08-28T07:05:05.536Z,25.65
2016-08-28T07:05:31.086Z,25.56
2016-08-28T07:05:56.635Z,25.65
2016-08-28T07:06:22.253Z,25.71
2016-08-28T07:06:47.810Z,25.68
2016-08-28T07:07:13.406Z,25.64
2016-08-28T07:07:39.081Z,25.64
2016-08-28T07:08:04.684Z,25.65
2016-08-28T07:08:30.204Z,25.61
2016-08-28T07:08:55.865Z,25.61
2016-08-28T07:09:21.450Z,25.64
2016-08-28T07:09:47.383Z,25.61
2016-08-28T07:10:13.016Z,25.62
2016-08-28T07:10:38.790Z,25.56
2016-08-28T07:11:04.349Z,25.61
2016-08-28T07:11:29.908Z,25.62
2016-08-28T07:11:55.499Z,25.68
2016-08-28T07:12:21.072Z,25.57
2016-08-28T07:12:46.751Z,25.67
2016-08-28T07:13:12.320Z,25.67
2016-08-28T07:13:37.875Z,25.64
2016-08-28T07:14:03.607Z,25.69
2016-08-28T07:14:29.242Z,25.71
2016-08-28T07:14:54.769Z,25.59
2016-08-28T07:15:20.331Z,25.59
2016-08-28T07:15:45.879Z,25.72
2016-08-28T07:16:11.462Z,25.59
2016-08-28T07:16:37.022Z,25.61
2016-08-28T07:17:02.593Z,25.62
2016-08-28T07:17:28.151Z,25.61
2016-08-28T07:17:53.795Z,25.57
2016-08-28T07:18:19.366Z,25.61
2016-08-28T07:18:44.927Z,25.57
2016-08-28T07:19:10.492Z,25.59
2016-08-28T07:19:36.123Z,25.68
2016-08-28T07:20:01.673Z,25.67
2016-08-28T07:20:27.253Z,25.71
2016-08-28T07:20:52.821Z,25.67
2016-08-28T07:21:18.452Z,25.69
2016-08-28T07:21:43.988Z,25.54
2016-08-28T07:22:09.548Z,25.62
2016-08-28T07:22:35.168Z,25.62
2016-08-28T07:23:00.711Z,25.69
2016-08-28T07:23:26.275Z,25.57
2016-08-28T07:23:51.847Z,25.59
2016-08-28T07:24:17.396Z,25.65
2016-08-28T07:24:43.123Z,25.59
2016-08-28T07:25:09.028Z,25.62
2016-08-28T07:25:34.567Z,25.57
2016-08-28T07:26:00.103Z,25.64
2016-08-28T07:26:26.267Z,25.62
2016-08-28T07:26:51.839Z,25.59
2016-08-28T07:27:17.409Z,25.61
2016-08-28T07:27:42.978Z,25.61
2016-08-28T07:28:08.546Z,25.62
2016-08-28T07:28:34.216Z,25.59
2016-08-28T07:28:59.900Z,25.59
2016-08-28T07:29:25.492Z,25.59
2016-08-28T07:29:51.036Z,25.62
2016-08-28T07:30:16.619Z,25.62
2016-08-28T07:30:42.183Z,25.67
2016-08-28T07:31:07.766Z,25.68
2016-08-28T07:31:33.313Z,25.57
2016-08-28T07:31:58.881Z,25.64
2016-08-28T07:32:24.464Z,25.64
2016-08-28T07:32:50.050Z,25.59
2016-08-28T07:33:15.683Z,25.71
2016-08-28T07:33:41.242Z,25.67
2016-08-28T07:34:06.809Z,25.61
2016-08-28T07:34:32.442Z,25.59
2016-08-28T07:34:57.993Z,25.59
2016-08-28T07:35:23.533Z,25.61
2016-08-28T07:35:49.464Z,25.62
2016-08-28T07:36:15.049Z,25.68
2016-08-28T07:36:40.597Z,25.62
2016-08-28T07:37:06.174Z,25.67
2016-08-28T07:37:31.770Z,25.61
2016-08-28T07:37:57.309Z,25.61
2016-08-28T07:38:22.854Z,25.59
2016-08-28T07:38:48.393Z,25.68
2016-08-28T07:39:14.138Z,25.68
2016-08-28T07:39:39.716Z,25.67
2016-08-28T07:40:05.308Z,25.64
2016-08-28T07:40:30.849Z,25.68
2016-08-28T07:40:56.400Z,25.59
2016-08-28T07:41:54.535Z,25.59
2016-08-28T07:42:20.075Z,25.65
2016-08-28T07:42:45.730Z,25.57
2016-08-28T07:43:11.287Z,25.59
2016-08-28T07:43:36.861Z,25.57
2016-08-28T07:44:02.451Z,25.59
2016-08-28T07:44:28.060Z,25.68
2016-08-28T07:44:53.777Z,25.61
2016-08-28T07:45:19.328Z,25.59
2016-08-28T07:45:44.873Z,25.59
2016-08-28T07:46:10.455Z,25.62
2016-08-28T07:46:36.027Z,25.64
2016-08-28T07:47:01.578Z,25.62
2016-08-28T07:47:27.142Z,25.59
2016-08-28T07:47:52.720Z,25.61
2016-08-28T07:48:18.273Z,25.61
2016-08-28T07:48:43.812Z,25.62
2016-08-28T07:49:09.376Z,25.61
2016-08-28T07:49:34.933Z,25.59
2016-08-28T07:50:00.505Z,25.59
2016-08-28T07:50:26.070Z,25.56
2016-08-28T07:50:51.635Z,25.61
2016-08-28T07:51:17.205Z,25.56
2016-08-28T07:51:42.793Z,25.53
2016-08-28T07:52:08.354Z,25.61
2016-08-28T07:52:34.029Z,25.54
2016-08-28T07:52:59.596Z,25.54
2016-08-28T07:53:25.156Z,25.53
2016-08-28T07:53:50.702Z,25.47
2016-08-28T07:54:16.279Z,25.5
2016-08-28T07:54:41.860Z,25.49
2016-08-28T07:55:07.427Z,25.54
2016-08-28T07:55:32.988Z,25.44
2016-08-28T07:55:58.551Z,25.57
2016-08-28T07:56:24.120Z,25.59
2016-08-28T07:56:49.699Z,25.56
2016-08-28T07:57:15.254Z,25.61
2016-08-28T07:57:40.794Z,25.56
2016-08-28T07:58:06.338Z,25.56
2016-08-28T07:58:31.982Z,25.54
2016-08-28T07:58:57.554Z,25.57
2016-08-28T07:59:23.105Z,25.54
2016-08-28T07:59:48.722Z,25.54
2016-08-28T08:00:14.285Z,25.56
2016-08-28T08:00:39.845Z,25.44
2016-08-28T08:01:05.410Z,25.46
2016-08-28T08:01:30.966Z,25.53
2016-08-28T08:01:56.598Z,25.52
2016-08-28T08:02:22.192Z,25.62
2016-08-28T08:02:47.769Z,25.53
2016-08-28T08:03:13.321Z,25.57
2016-08-28T08:03:38.869Z,25.56
2016-08-28T08:04:04.487Z,25.44
2016-08-28T08:04:30.037Z,25.56
2016-08-28T08:04:55.577Z,25.44
2016-08-28T08:05:21.131Z,25.52
2016-08-28T08:05:46.690Z,25.44
2016-08-28T08:06:12.229Z,25.49
2016-08-28T08:06:37.793Z,25.57
2016-08-28T08:07:03.343Z,25.53
2016-08-28T08:07:28.905Z,25.56
2016-08-28T08:07:54.522Z,25.53
2016-08-28T08:08:20.064Z,25.52
2016-08-28T08:08:45.626Z,25.61
2016-08-28T08:09:11.202Z,25.61
2016-08-28T08:09:36.794Z,25.54
2016-08-28T08:10:02.336Z,25.47
2016-08-28T08:10:27.882Z,25.49
2016-08-28T08:11:36.276Z,25.61
2016-08-28T08:12:01.881Z,25.57
2016-08-28T08:12:27.441Z,25.59
2016-08-28T08:12:52.990Z,25.54
2016-08-28T08:13:18.558Z,25.54
2016-08-28T08:13:44.130Z,25.53
2016-08-28T08:14:09.685Z,25.53
2016-08-28T08:14:35.306Z,25.53
2016-08-28T08:15:00.900Z,25.42
2016-08-28T08:15:26.465Z,25.49
2016-08-28T08:15:52.113Z,25.47
2016-08-28T08:16:17.678Z,25.44
2016-08-28T08:16:43.288Z,25.54
2016-08-28T08:17:08.858Z,25.44
2016-08-28T08:17:34.446Z,25.57
2016-08-28T08:18:00.024Z,25.57
2016-08-28T08:18:25.671Z,25.53
2016-08-28T08:18:51.337Z,25.57
2016-08-28T08:19:16.898Z,25.53
2016-08-28T08:19:42.470Z,25.62
2016-08-28T08:20:08.085Z,25.57
2016-08-28T08:20:33.659Z,25.59
2016-08-28T08:20:59.240Z,25.61
2016-08-28T08:21:24.794Z,25.64
2016-08-28T08:21:50.370Z,25.62
2016-08-28T08:22:15.946Z,25.54
2016-08-28T08:22:41.497Z,25.49
2016-08-28T08:23:07.054Z,25.54
2016-08-28T08:23:32.618Z,25.59
2016-08-28T08:23:58.208Z,25.59
2016-08-28T08:24:23.778Z,25.64
2016-08-28T08:24:49.340Z,25.61
2016-08-28T08:25:14.895Z,25.47
2016-08-28T08:25:40.499Z,25.46
2016-08-28T08:26:06.048Z,25.5
2016-08-28T08:26:31.601Z,25.62
2016-08-28T08:26:57.157Z,25.49
2016-08-28T08:27:22.713Z,25.38
2016-08-28T08:27:48.269Z,25.22
2016-08-28T08:28:13.885Z,25.2
2016-08-28T08:28:39.564Z,25.31
2016-08-28T08:29:05.159Z,25.31
2016-08-28T08:29:30.715Z,25.27
2016-08-28T08:29:56.276Z,25.3
2016-08-28T08:30:21.832Z,25.34
2016-08-28T08:30:47.384Z,25.34
2016-08-28T08:31:13.081Z,25.42
2016-08-28T08:31:38.646Z,25.37
2016-08-28T08:32:04.212Z,25.43
2016-08-28T08:32:29.762Z,25.42
2016-08-28T08:32:55.433Z,25.42
2016-08-28T08:33:21.023Z,25.39
2016-08-28T08:33:46.611Z,25.42
2016-08-28T08:34:12.218Z,25.46
2016-08-28T08:34:37.760Z,25.46
2016-08-28T08:35:03.451Z,25.47
2016-08-28T08:35:29.118Z,25.47
2016-08-28T08:35:54.659Z,25.46
2016-08-28T08:36:20.254Z,25.54
2016-08-28T08:36:45.895Z,25.46
2016-08-28T08:37:11.540Z,25.59
2016-08-28T08:37:37.093Z,25.61
2016-08-28T08:38:02.659Z,25.57
2016-08-28T08:38:28.224Z,25.65
2016-08-28T08:38:53.850Z,25.61
2016-08-28T08:39:19.466Z,25.61
2016-08-28T08:39:45.022Z,25.59
2016-08-28T08:40:10.585Z,25.61
2016-08-28T08:40:36.147Z,25.62
2016-08-28T08:41:01.727Z,25.62
2016-08-28T08:41:27.286Z,25.61
2016-08-28T08:41:52.851Z,25.62
2016-08-28T08:42:18.409Z,25.64
2016-08-28T08:42:43.975Z,25.59
2016-08-28T08:43:09.530Z,25.61
2016-08-28T08:43:35.092Z,25.59
2016-08-28T08:44:00.638Z,25.61
2016-08-28T08:44:26.227Z,25.56
2016-08-28T08:44:51.763Z,25.53
2016-08-28T08:45:17.333Z,25.64
2016-08-28T08:45:42.938Z,25.57
2016-08-28T08:46:08.525Z,25.47
2016-08-28T08:46:34.075Z,25.46
2016-08-28T08:46:59.648Z,25.49
2016-08-28T08:47:25.224Z,25.46
2016-08-28T08:47:50.812Z,25.53
2016-08-28T08:48:16.385Z,25.49
2016-08-28T08:48:41.957Z,25.57
2016-08-28T08:49:07.522Z,25.56
2016-08-28T08:49:33.092Z,25.61
2016-08-28T08:49:58.777Z,25.64
2016-08-28T08:50:46.618Z,25.59
2016-08-28T08:51:12.178Z,25.52
2016-08-28T08:53:19.235Z,25.42
2016-08-28T08:53:44.803Z,25.46
2016-08-28T08:54:10.382Z,25.43
2016-08-28T08:54:35.969Z,25.49
2016-08-28T08:55:01.539Z,25.44
2016-08-28T08:55:27.286Z,25.5
2016-08-28T08:55:52.931Z,25.46
2016-08-28T08:56:18.823Z,25.46
2016-08-28T08:56:44.396Z,25.5
2016-08-28T08:57:09.900Z,25.62
2016-08-28T08:57:35.322Z,25.56
2016-08-28T08:58:00.904Z,25.57
2016-08-28T08:58:26.524Z,25.64
2016-08-28T08:58:52.034Z,25.59
2016-08-28T08:59:17.590Z,25.59
2016-08-28T08:59:43.176Z,25.61
2016-08-28T09:00:08.747Z,25.61
2016-08-28T09:00:34.321Z,25.64
2016-08-28T09:00:59.930Z,25.69
2016-08-28T09:01:25.488Z,25.67
2016-08-28T09:01:51.113Z,25.57
2016-08-28T09:02:16.793Z,25.68
2016-08-28T09:02:42.375Z,25.72
2016-08-28T09:03:07.961Z,25.69
2016-08-28T09:03:33.619Z,25.69
2016-08-28T09:03:59.307Z,25.75
2016-08-28T09:04:25.067Z,25.71
2016-08-28T09:04:50.675Z,25.68
2016-08-28T09:05:16.297Z,25.8
2016-08-28T09:05:41.971Z,25.68
2016-08-28T09:06:07.552Z,25.77
2016-08-28T09:06:33.241Z,25.71
2016-08-28T09:06:58.775Z,25.69
2016-08-28T09:07:24.361Z,25.69
2016-08-28T09:07:50.019Z,25.65
2016-08-28T09:08:15.794Z,25.75
2016-08-28T09:08:41.377Z,25.64
2016-08-28T09:09:06.962Z,25.62
2016-08-28T09:09:32.578Z,25.71
2016-08-28T09:09:58.182Z,25.77
2016-08-28T09:10:23.805Z,25.67
2016-08-28T09:10:49.386Z,25.74
2016-08-28T09:11:14.982Z,25.79
2016-08-28T09:11:40.613Z,25.74
2016-08-28T09:12:06.260Z,25.79
2016-08-28T09:12:31.995Z,25.79
2016-08-28T09:12:57.649Z,25.82
2016-08-28T09:13:23.265Z,25.72
2016-08-28T09:13:48.915Z,25.72
2016-08-28T09:14:14.506Z,25.79
2016-08-28T09:14:40.317Z,25.75
2016-08-28T09:15:06.030Z,25.72
2016-08-28T09:15:31.759Z,25.79
2016-08-28T09:15:57.368Z,25.84
2016-08-28T09:16:22.975Z,25.84
2016-08-28T09:16:48.568Z,25.83
2016-08-28T09:17:14.163Z,25.86
2016-08-28T09:17:39.807Z,25.84
2016-08-28T09:18:05.378Z,25.84
2016-08-28T09:18:30.963Z,25.86
2016-08-28T09:18:56.547Z,25.8
2016-08-28T09:19:22.118Z,25.83
2016-08-28T09:19:47.722Z,25.86
2016-08-28T09:20:13.538Z,25.84
2016-08-28T09:20:39.008Z,25.9
2016-08-28T09:21:04.649Z,25.86
2016-08-28T09:21:30.279Z,25.86
2016-08-28T09:21:55.838Z,25.89
2016-08-28T09:22:21.466Z,25.83
2016-08-28T09:22:47.111Z,25.89
2016-08-28T09:23:12.765Z,25.87
2016-08-28T09:23:38.317Z,25.94
2016-08-28T09:24:03.972Z,25.94
2016-08-28T09:24:29.519Z,25.97
2016-08-28T09:24:55.104Z,25.94
2016-08-28T09:25:20.893Z,25.99
2016-08-28T09:25:46.533Z,25.99
2016-08-28T09:26:12.113Z,25.99
2016-08-28T09:26:37.787Z,26.02
2016-08-28T09:27:03.300Z,26.04
2016-08-28T09:27:28.820Z,26.04
2016-08-28T09:27:54.396Z,26.02
2016-08-28T09:28:19.987Z,26.12
2016-08-28T09:28:45.518Z,26.08
2016-08-28T09:29:11.290Z,26.04
2016-08-28T09:29:36.880Z,26.12
2016-08-28T09:30:02.506Z,26.12
2016-08-28T09:30:28.143Z,26.15
2016-08-28T09:30:53.708Z,26.15
2016-08-28T09:31:19.345Z,26.17
2016-08-28T09:31:44.865Z,26.2
2016-08-28T09:32:10.433Z,26.18
2016-08-28T09:32:36.095Z,26.2
2016-08-28T09:33:01.655Z,26.18
2016-08-28T09:33:27.218Z,26.21
2016-08-28T09:33:52.917Z,26.18
2016-08-28T09:34:18.518Z,26.21
2016-08-28T09:34:44.077Z,26.21
2016-08-28T09:35:09.765Z,26.24
2016-08-28T09:35:35.414Z,26.2
2016-08-28T09:36:01.144Z,26.24
2016-08-28T09:36:26.796Z,26.25
2016-08-28T09:36:52.352Z,26.2
2016-08-28T09:37:17.912Z,26.25
2016-08-28T09:37:43.473Z,26.18